Time;durP1;ratioP1;P1;durP2;ratioP2;P2;SDS_P1;SDS_P2;PMS_P1;PMS_P2;Temp;Humidity;BMP_temperature;BMP_pressure;BME280_temperature;BME280_humidity;BME280_pressure;Samples;Min_cycle;Max_cycle;Signal;HPM_P1;HPM_P2
2022/12/17 13:08:22;;;;;;;115.70;42.30;;;-0.70;99.90;;;;;;5027965;28;20476;-46
2022/12/17 13:10:51;;;;;;;117.32;41.03;;;-0.60;99.90;;;;;;5027629;28;20584;-45
2022/12/17 13:13:18;;;;;;;118.65;40.40;;;0.00;99.90;;;;;;5028535;28;20077;-50
2022/12/17 13:15:59;;;;;;;114.97;42.00;;;-0.60;99.90;;;;;;5028428;28;20404;-47
2022/12/17 13:18:40;;;;;;;114.15;41.38;;;0.40;99.90;;;;;;5028372;28;20192;-54
2022/12/17 13:21:25;;;;;;;117.30;40.60;;;-0.60;99.90;;;;;;5028099;28;20056;-57
2022/12/17 13:23:51;;;;;;;110.30;39.92;;;2.20;99.90;;;;;;5059824;28;20049;-47
2022/12/17 13:26:29;;;;;;;115.88;39.92;;;0.70;99.90;;;;;;5028279;28;20045;-48
2022/12/17 13:28:54;;;;;;;106.97;38.72;;;-0.70;99.90;;;;;;5028180;28;20381;-46
2022/12/17 13:31:51;;;;;;;115.40;41.47;;;-0.70;99.90;;;;;;5028215;28;20053;-49
2022/12/17 13:34:50;;;;;;;101.28;37.88;;;-0.70;99.90;;;;;;5028469;28;20045;-46
2022/12/17 13:37:41;;;;;;;110.45;38.42;;;-0.70;99.90;;;;;;5026328;28;20061;-47
2022/12/17 13:40:36;;;;;;;104.53;38.78;;;-0.60;99.90;;;;;;5026826;28;20052;-51
2022/12/17 13:43:02;;;;;;;106.30;37.33;;;-0.60;99.90;;;;;;5028228;28;20029;-56
2022/12/17 13:45:32;;;;;;;104.97;41.35;;;-0.70;99.90;;;;;;5027130;28;20077;-57
2022/12/17 13:47:59;;;;;;;106.53;37.38;;;-0.40;99.90;;;;;;5026687;28;20523;-57
2022/12/17 13:50:28;;;;;;;102.07;37.63;;;-0.70;99.90;;;;;;5010129;28;20092;-47
2022/12/17 13:52:53;;;;;;;103.43;41.50;;;-0.60;99.90;;;;;;5026053;28;20121;-56
2022/12/17 13:55:28;;;;;;;107.82;38.45;;;-0.60;99.90;;;;;;5027823;28;20447;-53
2022/12/17 13:57:54;;;;;;;104.53;39.05;;;-0.70;99.90;;;;;;5027531;28;20148;-51
2022/12/17 14:00:26;;;;;;;102.50;39.60;;;-0.70;99.90;;;;;;5026654;28;20112;-51
2022/12/17 14:02:53;;;;;;;101.00;39.30;;;-0.80;99.90;;;;;;5027675;28;20088;-57
2022/12/17 14:05:29;;;;;;;100.93;36.90;;;-0.80;99.90;;;;;;5028462;28;20058;-54
2022/12/17 14:07:59;;;;;;;103.82;38.20;;;-0.80;99.90;;;;;;5027605;28;20084;-43
2022/12/17 14:10:24;;;;;;;100.28;36.65;;;-0.90;99.90;;;;;;5027630;28;20048;-46
2022/12/17 14:12:50;;;;;;;97.28;36.40;;;-0.90;99.90;;;;;;5025305;28;20041;-53
2022/12/17 14:15:23;;;;;;;98.10;37.83;;;-0.90;99.90;;;;;;5027146;28;20049;-52
2022/12/17 14:17:49;;;;;;;94.80;36.20;;;-1.20;99.90;;;;;;5026484;28;20025;-57
2022/12/17 14:20:19;;;;;;;99.47;35.78;;;-1.00;99.90;;;;;;5026032;28;20087;-45
2022/12/17 14:23:05;;;;;;;104.45;36.88;;;-1.00;99.90;;;;;;5026955;28;20040;-47
2022/12/17 14:25:36;;;;;;;95.68;36.60;;;-1.00;99.90;;;;;;5026206;28;20057;-54
2022/12/17 14:28:27;;;;;;;107.85;39.28;;;-1.20;99.90;;;;;;5027346;28;20129;-46
2022/12/17 14:31:06;;;;;;;101.45;36.53;;;-1.00;99.90;;;;;;5027810;28;20060;-49
2022/12/17 14:33:34;;;;;;;107.50;39.95;;;-1.30;99.90;;;;;;5027817;28;20048;-58
2022/12/17 14:36:05;;;;;;;102.80;36.75;;;-1.10;99.90;;;;;;5026621;28;20053;-56
2022/12/17 14:38:31;;;;;;;103.22;37.20;;;-1.00;99.90;;;;;;5041618;28;20068;-55
2022/12/17 14:42:24;;;;;;;109.10;36.42;;;-1.00;99.90;;;;;;5026464;28;20038;-46
2022/12/17 14:44:00;;;;;;;104.65;36.00;;;-1.00;99.90;;;;;;5026688;28;20053;-54
2022/12/17 14:46:27;;;;;;;100.22;34.92;;;-1.00;99.90;;;;;;5026949;28;20059;-49
2022/12/17 14:49:00;;;;;;;104.53;38.40;;;-1.10;99.90;;;;;;5026412;28;20495;-47
2022/12/17 14:51:37;;;;;;;93.88;34.53;;;-1.10;99.90;;;;;;5024517;28;20072;-46
2022/12/17 14:54:44;;;;;;;95.00;35.10;;;-1.20;99.90;;;;;;5024444;28;20045;-56
2022/12/17 14:57:21;;;;;;;103.18;33.90;;;-1.20;99.90;;;;;;5003415;28;20137;-45
2022/12/17 14:59:49;;;;;;;107.47;38.17;;;-1.30;99.90;;;;;;5024240;28;20144;-48
2022/12/17 15:02:26;;;;;;;107.68;36.22;;;-1.30;99.90;;;;;;5026105;28;20549;-51
2022/12/17 15:04:57;;;;;;;112.25;38.08;;;-1.30;99.90;;;;;;5026121;28;20769;-51
2022/12/17 15:07:27;;;;;;;114.18;37.72;;;-0.90;99.90;;;;;;5026124;28;20045;-54
2022/12/17 15:09:54;;;;;;;114.63;34.97;;;-1.40;99.90;;;;;;5025858;28;20533;-49
2022/12/17 15:12:22;;;;;;;109.57;35.75;;;-1.50;99.90;;;;;;5026209;28;20037;-51
2022/12/17 15:14:48;;;;;;;114.25;35.60;;;-1.40;99.90;;;;;;5026066;28;20038;-54
2022/12/17 15:17:15;;;;;;;106.22;34.08;;;-1.40;99.90;;;;;;5026011;28;20111;-52
2022/12/17 15:19:40;;;;;;;106.03;37.85;;;-1.10;99.90;;;;;;5059221;28;20128;-52
2022/12/17 15:22:14;;;;;;;103.15;32.55;;;-1.50;99.90;;;;;;5021291;28;20750;-49
2022/12/17 15:24:40;;;;;;;103.00;32.70;;;-1.50;99.90;;;;;;5023361;28;20541;-54
2022/12/17 15:27:05;;;;;;;105.97;33.63;;;-1.60;99.90;;;;;;5025529;28;20041;-47
2022/12/17 15:29:33;;;;;;;103.03;31.10;;;-1.60;99.90;;;;;;5023774;28;20100;-53
2022/12/17 15:31:59;;;;;;;102.78;31.52;;;-1.60;99.90;;;;;;5024552;28;20061;-54
2022/12/17 15:34:24;;;;;;;100.68;30.77;;;-1.60;99.90;;;;;;5026293;28;20056;-52
2022/12/17 15:36:50;;;;;;;106.13;30.58;;;-1.60;99.90;;;;;;5025917;28;20103;-48
2022/12/17 15:39:19;;;;;;;101.18;29.95;;;-1.60;99.90;;;;;;5025979;28;20780;-49
2022/12/17 15:44:29;;;;;;;101.97;31.10;;;-1.70;99.90;;;;;;5025928;28;20107;-62
2022/12/17 15:46:55;;;;;;;109.35;30.75;;;-1.70;99.90;;;;;;5024426;28;20076;-49
2022/12/17 15:49:21;;;;;;;109.50;31.17;;;-1.70;99.90;;;;;;5026221;28;20142;-45
2022/12/17 15:51:47;;;;;;;102.78;31.13;;;-1.70;99.90;;;;;;5025925;28;20475;-57
2022/12/17 15:54:12;;;;;;;108.53;32.42;;;-1.80;99.90;;;;;;5024770;28;20056;-46
2022/12/17 15:56:38;;;;;;;109.57;31.23;;;-1.80;99.90;;;;;;5026097;28;20058;-53
2022/12/17 15:59:04;;;;;;;104.95;31.27;;;-1.80;99.90;;;;;;5024806;28;20061;-55
2022/12/17 16:01:29;;;;;;;109.18;32.50;;;-1.80;99.90;;;;;;5026585;28;20037;-56
2022/12/17 16:03:56;;;;;;;123.32;34.97;;;-1.90;99.90;;;;;;5026320;28;20135;-54
2022/12/17 16:06:22;;;;;;;113.90;33.40;;;-2.70;99.90;;;;;;5025521;28;20042;-56
2022/12/17 16:08:48;;;;;;;114.22;31.98;;;-1.90;99.90;;;;;;5025885;28;20041;-51
2022/12/17 16:11:14;;;;;;;131.45;35.13;;;-1.90;99.90;;;;;;5023881;28;20041;-46
2022/12/17 16:13:40;;;;;;;117.50;30.92;;;-1.90;99.90;;;;;;5026131;28;20041;-54
2022/12/17 16:16:07;;;;;;;108.32;31.58;;;-1.90;99.90;;;;;;5025353;28;20060;-53
2022/12/17 16:18:32;;;;;;;111.68;29.75;;;-2.00;99.90;;;;;;5025873;28;20045;-47
2022/12/17 16:21:06;;;;;;;114.45;32.10;;;-2.00;99.90;;;;;;5025793;28;20067;-52
2022/12/17 16:23:32;;;;;;;110.70;33.97;;;-2.00;99.90;;;;;;5026251;28;20053;-52
2022/12/17 16:26:00;;;;;;;113.15;32.20;;;-2.10;99.90;;;;;;5024680;28;20053;-50
2022/12/17 16:28:26;;;;;;;108.50;32.20;;;-2.10;99.90;;;;;;5026035;28;20049;-54
2022/12/17 16:31:03;;;;;;;108.50;30.75;;;-2.10;99.90;;;;;;5025825;28;20064;-53
2022/12/17 16:33:36;;;;;;;112.90;29.98;;;-2.10;99.90;;;;;;5025946;28;20048;-55
2022/12/17 16:36:03;;;;;;;101.35;31.65;;;-2.20;99.90;;;;;;5025549;28;20045;-55
2022/12/17 16:38:29;;;;;;;108.70;30.73;;;-2.20;99.90;;;;;;5025764;28;20116;-51
2022/12/17 16:41:01;;;;;;;131.50;33.13;;;-2.20;99.90;;;;;;5026912;28;20124;-47
2022/12/17 16:43:27;;;;;;;;;;;-2.20;99.90;;;;;;5029725;28;20090;-53
2022/12/17 16:45:53;;;;;;;121.65;31.83;;;-2.20;99.90;;;;;;5029027;28;19928;-52
2022/12/17 16:48:22;;;;;;;126.32;34.63;;;-2.20;99.90;;;;;;5027211;28;20057;-56
2022/12/17 16:50:49;;;;;;;120.90;34.17;;;-2.20;99.90;;;;;;5028552;28;20041;-48
2022/12/17 16:53:16;;;;;;;121.70;35.58;;;-2.20;99.90;;;;;;5028667;28;20088;-44
2022/12/17 16:55:46;;;;;;;132.95;36.10;;;-2.20;99.90;;;;;;5028819;28;20056;-43
2022/12/17 16:58:13;;;;;;;131.55;36.20;;;-2.20;99.90;;;;;;5028172;28;20053;-43
2022/12/17 17:00:39;;;;;;;126.22;36.10;;;-2.20;99.90;;;;;;5028748;28;20043;-42
2022/12/17 17:03:06;;;;;;;128.65;36.15;;;-2.20;99.90;;;;;;5028263;28;20607;-45
2022/12/17 17:05:33;;;;;;;127.82;34.42;;;-2.20;99.90;;;;;;5028434;28;20491;-44
2022/12/17 17:07:59;;;;;;;117.70;35.67;;;-2.20;99.90;;;;;;5028585;28;20141;-45
2022/12/17 17:10:25;;;;;;;144.57;37.83;;;-2.20;99.90;;;;;;5027913;28;20076;-45
2022/12/17 17:12:51;;;;;;;129.05;34.75;;;-2.20;99.90;;;;;;5028285;28;20995;-45
2022/12/17 17:15:17;;;;;;;117.32;31.40;;;-2.20;99.90;;;;;;5043117;28;20484;-45
2022/12/17 17:17:43;;;;;;;119.78;35.80;;;-2.20;99.90;;;;;;5028323;28;20038;-44
2022/12/17 17:20:10;;;;;;;120.32;33.35;;;-2.20;99.90;;;;;;5028260;28;20046;-42
2022/12/17 17:22:35;;;;;;;112.75;32.58;;;-2.30;99.90;;;;;;5028424;28;20048;-50
2022/12/17 17:25:01;;;;;;;115.97;34.35;;;-2.30;99.90;;;;;;5028007;28;20041;-45
2022/12/17 17:27:27;;;;;;;124.85;34.42;;;-2.30;99.90;;;;;;5028009;28;20053;-46
2022/12/17 17:29:53;;;;;;;110.60;32.53;;;-2.30;99.90;;;;;;5028109;28;20052;-46
2022/12/17 17:32:18;;;;;;;117.50;33.03;;;-2.30;99.90;;;;;;5028175;28;20447;-42
2022/12/17 17:34:44;;;;;;;115.32;35.83;;;-2.30;99.90;;;;;;5027702;28;20900;-50
2022/12/17 17:37:10;;;;;;;111.00;33.65;;;-3.70;99.90;;;;;;5026177;28;20128;-45
2022/12/17 17:39:35;;;;;;;120.40;32.95;;;-2.30;99.90;;;;;;5027203;28;20573;-45
2022/12/17 17:42:01;;;;;;;121.88;35.30;;;-2.30;99.90;;;;;;5027967;28;20085;-42
2022/12/17 17:44:27;;;;;;;110.25;32.58;;;-2.40;99.90;;;;;;5027701;28;20099;-43
2022/12/17 17:46:52;;;;;;;110.47;35.85;;;-2.40;99.90;;;;;;5027841;28;20083;-42
2022/12/17 17:49:18;;;;;;;116.38;34.05;;;-2.40;99.90;;;;;;5027638;28;20387;-45
2022/12/17 17:51:44;;;;;;;104.53;35.53;;;-2.40;99.90;;;;;;5027218;28;20034;-43
2022/12/17 17:54:10;;;;;;;115.55;37.20;;;-2.40;99.90;;;;;;5028081;28;20040;-44
2022/12/17 17:56:38;;;;;;;112.82;35.78;;;-2.40;99.90;;;;;;5027819;28;20863;-43
2022/12/17 17:59:11;;;;;;;101.45;33.58;;;-2.40;99.90;;;;;;5027451;28;20425;-42
2022/12/17 18:01:39;;;;;;;109.80;35.83;;;-2.40;99.90;;;;;;5027421;28;20049;-41
2022/12/17 18:04:07;;;;;;;105.65;35.97;;;-2.40;99.90;;;;;;5027569;28;20114;-42
2022/12/17 18:06:36;;;;;;;104.68;38.05;;;-2.50;99.90;;;;;;5026729;28;20532;-43
2022/12/17 18:09:02;;;;;;;126.60;39.30;;;-2.50;99.90;;;;;;5026225;28;20041;-44
2022/12/17 18:11:29;;;;;;;111.65;38.13;;;-2.50;99.90;;;;;;5026801;28;20038;-43
2022/12/17 18:13:56;;;;;;;108.15;38.30;;;-2.50;99.90;;;;;;5026952;28;20391;-43
2022/12/17 18:16:36;;;;;;;115.72;39.70;;;-2.50;99.90;;;;;;5026363;28;20092;-41
2022/12/17 18:19:04;;;;;;;116.93;39.83;;;-2.60;99.90;;;;;;5026841;28;20045;-46
2022/12/17 18:21:30;;;;;;;114.03;39.63;;;-2.60;99.90;;;;;;5026954;28;20038;-48
2022/12/17 18:24:20;;;;;;;108.28;40.30;;;-2.60;99.90;;;;;;5027212;28;20052;-47
2022/12/17 18:26:46;;;;;;;110.03;38.67;;;-2.60;99.90;;;;;;5026991;28;20045;-47
2022/12/17 18:29:16;;;;;;;116.03;39.55;;;-2.60;99.90;;;;;;5026478;28;20037;-46
2022/12/17 18:31:42;;;;;;;128.77;43.30;;;-2.60;99.90;;;;;;5027186;28;20059;-47
2022/12/17 18:34:12;;;;;;;120.20;41.47;;;-2.60;99.90;;;;;;5026625;28;20120;-47
2022/12/17 18:36:40;;;;;;;141.48;43.47;;;-2.70;99.90;;;;;;5026969;28;20049;-45
2022/12/17 18:39:14;;;;;;;127.15;42.72;;;-2.60;99.90;;;;;;5027466;28;20072;-40
2022/12/17 18:44:26;;;;;;;124.07;42.85;;;-2.60;99.90;;;;;;5027848;28;20049;-43
2022/12/17 18:46:52;;;;;;;134.50;46.33;;;-2.60;99.90;;;;;;5028047;28;20107;-43
2022/12/17 18:49:19;;;;;;;129.52;49.10;;;-2.60;99.90;;;;;;5028060;28;20045;-43
2022/12/17 18:51:47;;;;;;;135.40;46.10;;;-2.60;99.90;;;;;;5028289;28;20099;-42
2022/12/17 18:54:16;;;;;;;131.52;46.88;;;-2.60;99.90;;;;;;5027715;28;20045;-44
2022/12/17 18:56:42;;;;;;;129.13;45.83;;;-2.60;99.90;;;;;;5027534;28;20164;-46
2022/12/17 18:59:12;;;;;;;136.80;50.60;;;-1.60;99.90;;;;;;5027591;28;20051;-42
2022/12/17 19:01:37;;;;;;;125.60;46.25;;;-2.60;99.90;;;;;;5027335;28;20047;-44
2022/12/17 19:04:08;;;;;;;129.63;46.17;;;-2.60;99.90;;;;;;5027189;28;20041;-44
2022/12/17 19:06:36;;;;;;;127.10;45.13;;;-2.60;99.90;;;;;;5027408;28;20116;-43
2022/12/17 19:09:03;;;;;;;137.52;49.05;;;-2.60;99.90;;;;;;5026803;28;20033;-44
2022/12/17 19:11:28;;;;;;;126.55;42.53;;;-2.60;99.90;;;;;;5027491;28;20073;-44
2022/12/17 19:13:54;;;;;;;129.18;45.20;;;-2.60;99.90;;;;;;5027788;28;20145;-44
2022/12/17 19:16:22;;;;;;;134.23;47.17;;;-2.60;99.90;;;;;;5027011;28;20048;-44
2022/12/17 19:19:01;;;;;;;128.80;46.55;;;-2.60;99.90;;;;;;5027376;28;20045;-45
2022/12/17 19:21:27;;;;;;;130.02;44.85;;;-2.60;99.90;;;;;;5027213;28;20059;-43
2022/12/17 19:24:02;;;;;;;125.70;43.67;;;-2.70;99.90;;;;;;5027046;28;20478;-44
2022/12/17 19:26:29;;;;;;;117.80;40.65;;;-2.70;99.90;;;;;;5027155;28;20087;-44
2022/12/17 19:28:56;;;;;;;115.32;42.40;;;-2.70;99.90;;;;;;5027094;28;20049;-44
2022/12/17 19:31:24;;;;;;;122.32;45.65;;;-2.70;99.90;;;;;;5026985;28;20082;-43
2022/12/17 19:33:57;;;;;;;133.98;45.97;;;-2.70;99.90;;;;;;5027087;28;20120;-44
2022/12/17 19:36:24;;;;;;;120.82;44.72;;;-2.70;99.90;;;;;;5025795;28;20464;-45
2022/12/17 19:38:55;;;;;;;136.18;47.08;;;-2.70;99.90;;;;;;5026623;28;20044;-44
2022/12/17 19:41:22;;;;;;;127.43;45.45;;;-2.80;99.90;;;;;;5025430;28;20071;-43
2022/12/17 19:43:53;;;;;;;130.07;44.95;;;-2.30;99.90;;;;;;5025841;28;20041;-45
2022/12/17 19:46:19;;;;;;;123.85;44.55;;;-2.70;99.90;;;;;;5026226;28;20073;-44
2022/12/17 19:48:46;;;;;;;133.38;44.92;;;-2.70;99.90;;;;;;5025753;28;20079;-45
2022/12/17 19:51:14;;;;;;;136.60;46.83;;;-2.70;99.90;;;;;;5026060;28;20122;-43
2022/12/17 19:53:42;;;;;;;137.10;48.10;;;-2.70;99.90;;;;;;5026191;28;20047;-44
2022/12/17 19:56:26;;;;;;;131.50;47.10;;;-2.70;99.90;;;;;;5026091;28;20045;-45
2022/12/17 19:59:00;;;;;;;146.05;48.88;;;-2.70;99.90;;;;;;5023848;28;20530;-44
2022/12/17 20:01:39;;;;;;;139.60;47.80;;;-2.70;99.90;;;;;;5025642;28;20769;-43
2022/12/17 20:04:05;;;;;;;137.75;47.30;;;-2.70;99.90;;;;;;5025657;28;20041;-45
2022/12/17 20:06:32;;;;;;;145.18;48.88;;;-2.70;99.90;;;;;;5025678;28;20041;-45
2022/12/17 20:08:59;;;;;;;130.20;47.10;;;-2.70;99.90;;;;;;5026015;28;20056;-46
2022/12/17 20:11:34;;;;;;;146.50;53.92;;;-2.80;99.90;;;;;;5025191;28;20037;-43
2022/12/17 20:14:12;;;;;;;145.68;50.03;;;-2.80;99.90;;;;;;5025662;28;20798;-44
2022/12/17 20:16:43;;;;;;;147.18;49.53;;;-2.80;99.90;;;;;;5028861;28;20045;-44
2022/12/17 20:19:14;;;;;;;155.05;48.67;;;-2.70;99.90;;;;;;5029402;28;20124;-43
2022/12/17 20:21:40;;;;;;;137.30;46.23;;;-2.80;99.90;;;;;;5029309;28;20042;-45
2022/12/17 20:24:07;;;;;;;137.77;47.03;;;-2.80;99.90;;;;;;5029264;28;20333;-43
2022/12/17 20:26:33;;;;;;;136.65;44.47;;;-2.80;99.90;;;;;;5029541;28;20726;-43
2022/12/17 20:28:59;;;;;;;124.78;42.97;;;-2.80;99.90;;;;;;5029487;28;20083;-44
2022/12/17 20:31:25;;;;;;;134.73;45.72;;;-2.80;99.90;;;;;;5029828;28;20786;-44
2022/12/17 20:33:51;;;;;;;129.43;44.88;;;-2.80;99.90;;;;;;5029177;28;20056;-44
2022/12/17 20:36:18;;;;;;;134.48;45.90;;;-2.80;99.90;;;;;;5029117;28;20045;-44
2022/12/17 20:38:44;;;;;;;145.23;50.20;;;-2.90;99.90;;;;;;5028754;28;20037;-44
2022/12/17 20:41:24;;;;;;;140.38;50.17;;;-2.90;99.90;;;;;;5028417;28;20059;-45
2022/12/17 20:43:51;;;;;;;131.18;44.45;;;-2.90;99.90;;;;;;5029047;28;20041;-44
2022/12/17 20:46:18;;;;;;;142.55;45.72;;;-2.90;99.90;;;;;;5028938;28;20120;-45
2022/12/17 20:48:44;;;;;;;133.40;46.38;;;-2.90;99.90;;;;;;5028740;28;20126;-43
2022/12/17 20:51:13;;;;;;;128.25;47.08;;;-2.90;99.90;;;;;;5028518;28;20053;-44
2022/12/17 20:53:39;;;;;;;126.70;42.53;;;-2.90;99.90;;;;;;5028647;28;20800;-44
2022/12/17 20:56:13;;;;;;;128.50;44.70;;;-3.10;99.90;;;;;;5028509;28;20041;-44
2022/12/17 20:58:40;;;;;;;109.72;40.10;;;-2.90;99.90;;;;;;5060722;28;20771;-44
2022/12/17 21:01:15;;;;;;;127.85;42.08;;;-3.00;99.90;;;;;;5028784;28;20048;-43
2022/12/17 21:03:41;;;;;;;127.65;42.35;;;-3.00;99.90;;;;;;5028526;28;20045;-44
2022/12/17 21:06:17;;;;;;;118.53;41.08;;;-3.00;99.90;;;;;;5028766;28;20129;-44
2022/12/17 21:08:47;;;;;;;120.65;41.78;;;-3.00;99.90;;;;;;5028107;28;20057;-44
2022/12/17 21:11:13;;;;;;;119.90;40.05;;;-3.10;99.90;;;;;;5028361;28;20057;-43
2022/12/17 21:13:39;;;;;;;115.40;42.53;;;-3.10;99.90;;;;;;5026915;28;20041;-43
2022/12/17 21:16:10;;;;;;;131.27;40.70;;;-3.10;99.90;;;;;;5028415;28;20129;-45
2022/12/17 21:18:36;;;;;;;118.15;40.30;;;-3.10;99.90;;;;;;5027753;28;20601;-43
2022/12/17 21:21:11;;;;;;;131.73;40.95;;;-3.20;99.90;;;;;;5027921;28;20037;-44
2022/12/17 21:23:37;;;;;;;116.93;39.95;;;-3.20;99.90;;;;;;5028493;28;20442;-45
2022/12/17 21:26:10;;;;;;;119.72;40.55;;;-3.20;99.90;;;;;;5027443;28;20130;-43
2022/12/17 21:28:38;;;;;;;132.98;42.83;;;-3.20;99.90;;;;;;5026102;28;20114;-44
2022/12/17 21:31:04;;;;;;;129.50;43.95;;;-2.70;99.90;;;;;;5028318;28;20045;-43
2022/12/17 21:33:30;;;;;;;135.13;41.17;;;-3.30;99.90;;;;;;5028603;28;20060;-44
2022/12/17 21:36:04;;;;;;;121.90;39.95;;;-3.20;99.90;;;;;;5028551;28;20045;-44
2022/12/17 21:38:30;;;;;;;113.03;38.25;;;-3.20;99.90;;;;;;5028776;28;20083;-43
2022/12/17 21:41:06;;;;;;;124.70;41.05;;;-3.20;99.90;;;;;;5027952;28;20050;-43
2022/12/17 21:43:33;;;;;;;125.18;43.22;;;-3.20;99.90;;;;;;5028088;28;20052;-43
2022/12/17 21:45:59;;;;;;;128.50;44.65;;;-3.20;99.90;;;;;;5027545;28;20570;-43
2022/12/17 21:48:25;;;;;;;133.75;42.38;;;-3.20;99.90;;;;;;5027318;28;20672;-43
2022/12/17 21:50:51;;;;;;;130.77;42.20;;;-3.20;99.90;;;;;;5027871;28;20148;-44
2022/12/17 21:53:17;;;;;;;125.57;39.10;;;-3.20;99.90;;;;;;5028250;28;20120;-43
2022/12/17 21:55:43;;;;;;;121.38;40.85;;;-3.20;99.90;;;;;;5028106;28;20041;-43
2022/12/17 21:58:10;;;;;;;117.57;41.10;;;-3.20;99.90;;;;;;5027475;28;20558;-44
2022/12/17 22:00:35;;;;;;;115.53;40.22;;;-3.20;99.90;;;;;;5027184;28;20120;-43
2022/12/17 22:03:01;;;;;;;123.93;40.60;;;-1.90;99.90;;;;;;5027245;28;20132;-43
2022/12/17 22:05:27;;;;;;;120.00;39.45;;;-3.30;99.90;;;;;;5027240;28;20056;-44
2022/12/17 22:07:54;;;;;;;110.35;37.83;;;-3.30;99.90;;;;;;5027666;28;20435;-44
2022/12/17 22:10:20;;;;;;;129.40;41.10;;;-3.30;99.90;;;;;;5027610;28;20041;-42
2022/12/17 22:15:30;;;;;;;127.95;42.45;;;-3.30;99.90;;;;;;5027504;28;20049;-44
2022/12/17 22:17:56;;;;;;;123.20;38.25;;;-3.40;99.90;;;;;;5026574;28;20503;-43
2022/12/17 22:20:22;;;;;;;114.72;38.70;;;-3.40;99.90;;;;;;5027124;28;20041;-42
2022/12/17 22:22:48;;;;;;;124.35;40.58;;;-3.40;99.90;;;;;;5027165;28;20108;-44
2022/12/17 22:25:14;;;;;;;121.22;40.55;;;-3.40;99.90;;;;;;5026820;28;20115;-42
2022/12/17 22:27:40;;;;;;;120.10;38.95;;;-3.40;99.90;;;;;;5027102;28;20041;-43
2022/12/17 22:33:04;;;;;;;116.85;38.17;;;-3.40;99.90;;;;;;5026660;28;20467;-44
2022/12/17 22:35:38;;;;;;;110.97;38.10;;;-3.40;99.90;;;;;;5026585;28;20118;-43
2022/12/17 22:38:05;;;;;;;118.10;39.80;;;-3.40;99.90;;;;;;5026644;28;20037;-43
2022/12/17 22:40:35;;;;;;;123.82;38.22;;;-3.40;99.90;;;;;;5027047;28;20034;-42
2022/12/17 22:45:45;;;;;;;108.78;37.63;;;-3.40;99.90;;;;;;5026787;28;20060;-42
2022/12/17 22:48:12;;;;;;;118.63;39.33;;;-3.40;99.90;;;;;;5025458;28;20503;-43
2022/12/17 22:50:38;;;;;;;121.35;38.03;;;-3.40;99.90;;;;;;5026906;28;20041;-43
2022/12/17 22:53:04;;;;;;;106.45;32.58;;;-3.40;99.90;;;;;;5026501;28;20041;-42
2022/12/17 22:55:31;;;;;;;110.95;34.65;;;-3.50;99.90;;;;;;5026774;28;20364;-42
2022/12/17 22:57:57;;;;;;;108.25;35.63;;;-3.50;99.90;;;;;;5026446;28;20590;-42
2022/12/17 23:00:28;;;;;;;109.90;36.28;;;-3.50;99.90;;;;;;5026877;28;20091;-42
2022/12/17 23:02:54;;;;;;;113.45;36.40;;;-3.50;99.90;;;;;;5027147;28;20045;-42
2022/12/17 23:05:22;;;;;;;119.55;38.58;;;-4.40;99.90;;;;;;5026974;28;20529;-42
2022/12/17 23:07:48;;;;;;;107.35;35.45;;;-3.60;99.90;;;;;;5027163;28;20472;-42
2022/12/17 23:10:15;;;;;;;108.30;35.10;;;-3.60;99.90;;;;;;5027227;28;20095;-43
2022/12/17 23:12:50;;;;;;;111.40;37.15;;;-3.60;99.90;;;;;;5026999;28;20045;-43
2022/12/17 23:15:17;;;;;;;103.75;35.05;;;-3.60;99.90;;;;;;5027228;28;20041;-43
2022/12/17 23:17:43;;;;;;;113.35;34.08;;;-3.60;99.90;;;;;;5026396;28;20041;-43
2022/12/17 23:20:10;;;;;;;109.10;35.70;;;-3.60;99.90;;;;;;5027215;28;20044;-44
2022/12/17 23:22:35;;;;;;;115.82;35.63;;;-3.60;99.90;;;;;;5027541;28;20033;-42
2022/12/17 23:25:01;;;;;;;112.70;36.58;;;-3.70;99.90;;;;;;5027334;28;20703;-42
2022/12/17 23:27:27;;;;;;;107.70;34.05;;;-3.70;99.90;;;;;;5027293;28;20087;-43
2022/12/17 23:29:53;;;;;;;112.43;34.55;;;-3.70;99.90;;;;;;5027256;28;20045;-43
2022/12/17 23:32:18;;;;;;;108.13;35.58;;;-3.70;99.90;;;;;;5027029;28;20045;-42
2022/12/17 23:34:44;;;;;;;103.97;35.65;;;-3.70;99.90;;;;;;5027325;28;20045;-42
2022/12/17 23:37:10;;;;;;;107.25;34.63;;;-3.70;99.90;;;;;;5026794;28;20095;-43
2022/12/17 23:39:35;;;;;;;108.75;34.38;;;-3.80;99.90;;;;;;5027079;28;20048;-42
2022/12/17 23:42:01;;;;;;;113.65;35.65;;;-3.80;99.90;;;;;;5026897;28;20623;-42
2022/12/17 23:44:27;;;;;;;121.65;35.55;;;-3.80;99.90;;;;;;5026983;28;20057;-43
2022/12/17 23:46:52;;;;;;;115.32;34.83;;;-3.80;99.90;;;;;;5026890;28;20037;-43
2022/12/17 23:49:18;;;;;;;122.75;36.30;;;-3.80;99.90;;;;;;5026634;28;20072;-42
2022/12/17 23:51:44;;;;;;;106.95;34.85;;;-3.90;99.90;;;;;;5030347;28;20037;-42
2022/12/17 23:54:09;;;;;;;115.65;36.47;;;-3.90;99.90;;;;;;5030625;28;20045;-43
2022/12/17 23:56:35;;;;;;;119.28;37.30;;;-3.30;99.90;;;;;;5030522;28;20052;-42
2022/12/17 23:59:02;;;;;;;120.30;38.42;;;-3.90;99.90;;;;;;5031144;28;20052;-42
